Marianne — VRFM5 — position and weather

sailwx.info

Track history (hours):
 
Tides and Currents Weather Stations Pressure Air Temp Water Temp Dewpoint Dewpoint Depression Visibility Wind Speed Wind Dir Waves Ship Positions

Marianne

Last reported at 2014-Nov-24 15:33 UTC. Time now 2014-Nov-25 01:40 UTC.
Position N 59°06' E 005°02'.

Length 97 m; draft 5.5 m.

Type: Ship (hazmat cat B). MMSI: 477560836.

Date/timePositionNaut miles runAvg speedWind from/ knotsBaromVisibWave heightAir tempDewpointWater temp
2014-Nov-24 15:33N 59°06' E 005°02'1110.9
2014-Nov-24 14:33N 59°06' E 005°23'9 9.1
2014-Nov-24 13:33N 59°14' E 005°32'0 0.0
2014-Nov-24 12:33N 59°14' E 005°32'0 0.0
2014-Nov-24 11:33N 59°14' E 005°32'0 0.1
2014-Nov-24 10:33N 59°14' E 005°32'0 0.0
2014-Nov-24 09:33N 59°14' E 005°32'0 0.0
2014-Nov-24 08:33N 59°14' E 005°32'0 0.0
2014-Nov-24 07:33N 59°14' E 005°32'0 0.0
2014-Nov-24 06:33N 59°14' E 005°32'0 0.0
2014-Nov-24 05:27N 59°14' E 005°32'0 0.0
2014-Nov-24 04:33N 59°14' E 005°32'0 0.0
2014-Nov-24 03:27N 59°14' E 005°32'0 0.0
2014-Nov-24 02:30N 59°14' E 005°32'0 0.0
2014-Nov-24 01:30N 59°14' E 005°32'0 0.0
2014-Nov-24 00:30N 59°14' E 005°32'0 0.0
2014-Nov-23 23:27N 59°14' E 005°32'0 0.1
2014-Nov-23 22:33N 59°14' E 005°32'0 0.2
2014-Nov-23 21:33N 59°14' E 005°32'0 0.1
2014-Nov-23 20:33N 59°14' E 005°32'0 0.0
2014-Nov-23 19:27N 59°14' E 005°32'3 3.3
2014-Nov-23 18:34N 59°11' E 005°32'8 8.0
2014-Nov-23 17:33N 59°05' E 005°22'1313.1
2014-Nov-23 16:33N 58°52' E 005°15'28014.5
2014-Nov-22 21:14N 54°12' E 004°58'1014.7
2014-Nov-22 20:33N 54°03' E 004°55'1514.7
2014-Nov-22 19:32N 53°48' E 004°53'1515.0
2014-Nov-22 18:32N 53°33' E 004°49'1515.3
2014-Nov-22 17:33N 53°19' E 004°38'1716.3
2014-Nov-22 16:31N 53°04' E 004°24'1816.2
2014-Nov-22 15:22N 52°48' E 004°11'1415.9
2014-Nov-22 14:30N 52°38' E 003°55'5914.6
2014-Nov-22 10:27N 51°43' E 003°17'1112.0
2014-Nov-22 09:32N 51°34' E 003°25'1110.9
2014-Nov-22 08:33N 51°26' E 003°37'4 3.9
2014-Nov-22 07:32N 51°28' E 003°43'0 0.0
2014-Nov-22 06:32N 51°28' E 003°43'0 0.0
2014-Nov-22 05:32N 51°28' E 003°43'0 0.0
2014-Nov-22 04:32N 51°28' E 003°43'0 0.0
2014-Nov-22 03:32N 51°28' E 003°43'0 0.0
2014-Nov-22 02:32N 51°28' E 003°43'0 0.0
2014-Nov-22 01:32N 51°28' E 003°43'0 0.0
2014-Nov-22 00:32N 51°28' E 003°43'0 0.0
2014-Nov-21 23:26N 51°28' E 003°43'0 0.0
2014-Nov-21 22:29N 51°28' E 003°43'0 0.0
2014-Nov-21 21:32N 51°28' E 003°43'0 0.0
2014-Nov-21 20:32N 51°28' E 003°43'0 0.0
2014-Nov-21 19:29N 51°28' E 003°43'0 0.0
2014-Nov-21 18:26N 51°28' E 003°43'0 0.0
2014-Nov-21 17:32N 51°28' E 003°43'4 3.7
2014-Nov-21 16:33N 51°26' E 003°38'9 9.0
2014-Nov-21 15:33N 51°31' E 003°26'1211.6
2014-Nov-21 14:32N 51°42' E 003°17'9 9.3
2014-Nov-21 13:33N 51°46' E 003°04'5212.1
2014-Nov-21 09:16N 52°30' E 002°19'2914.2
2014-Nov-21 07:15N 52°55' E 001°57'1015.2
2014-Nov-21 06:33N 53°01' E 001°43'1515.2
2014-Nov-21 05:33N 53°09' E 001°21'4714.8
2014-Nov-21 02:22N 53°49' E 000°38'1214.7
2014-Nov-21 01:33N 53°58' E 000°26'1414.4
2014-Nov-21 00:33N 54°09' E 000°11'1414.0
2014-Nov-20 23:33N 54°21' W 000°01'1413.7
2014-Nov-20 22:33N 54°33' W 000°12'1313.4
2014-Nov-20 21:33N 54°45' W 000°23'1313.2
2014-Nov-20 20:33N 54°57' W 000°34'8013.1
2014-Nov-20 14:28N 55°58' W 002°04'1314.0
2014-Nov-20 13:33N 56°05' W 002°24'1312.7
2014-Nov-20 12:33N 56°06' W 002°46'1010.3
2014-Nov-20 11:33N 56°04' W 003°05'0 0.0
2014-Nov-20 10:25N 56°04' W 003°05'0 0.0
2014-Nov-20 09:28N 56°04' W 003°05'0 0.0
2014-Nov-20 08:28N 56°04' W 003°05'0 0.0
2014-Nov-20 07:28N 56°04' W 003°05'0 0.0
2014-Nov-20 06:31N 56°04' W 003°05'0 0.0
2014-Nov-20 05:16N 56°04' W 003°05'0 0.1
2014-Nov-20 04:31N 56°04' W 003°05'0 0.0
2014-Nov-20 03:31N 56°04' W 003°05'0 0.1
2014-Nov-20 02:31N 56°04' W 003°05'0 0.1
2014-Nov-20 01:31N 56°04' W 003°05'0 0.0
2014-Nov-20 00:31N 56°04' W 003°05'0 0.0
2014-Nov-19 23:22N 56°04' W 003°05'0 0.0
2014-Nov-19 22:25N 56°04' W 003°05'0 0.0
2014-Nov-19 21:25N 56°04' W 003°05'0 0.0
2014-Nov-19 20:25N 56°04' W 003°05'0 0.0
2014-Nov-19 19:28N 56°04' W 003°05'0 0.0
2014-Nov-19 18:28N 56°04' W 003°05'0 0.0
2014-Nov-19 17:28N 56°04' W 003°05'0 0.0
2014-Nov-19 16:31N 56°04' W 003°05'0 0.0
2014-Nov-19 15:31N 56°04' W 003°05'0 0.0
2014-Nov-19 14:31N 56°04' W 003°05'0 0.0
2014-Nov-19 13:31N 56°04' W 003°05'0 0.0
2014-Nov-19 12:19N 56°04' W 003°05'0 0.0
2014-Nov-19 11:31N 56°04' W 003°05'0 0.0
2014-Nov-19 10:22N 56°04' W 003°05'0 0.0
2014-Nov-19 09:22N 56°04' W 003°05'0 0.0
2014-Nov-19 08:25N 56°04' W 003°05'0 0.0
2014-Nov-19 07:25N 56°04' W 003°05'0 0.0
2014-Nov-19 06:25N 56°04' W 003°05'0 0.0
2014-Nov-19 05:28N 56°04' W 003°05'0 0.0
2014-Nov-19 04:25N 56°04' W 003°05'0 0.0
2014-Nov-19 03:28N 56°04' W 003°05'0 0.0
2014-Nov-19 02:31N 56°04' W 003°05'0 0.0
2014-Nov-19 01:31N 56°04' W 003°05'0 0.0
2014-Nov-19 00:31N 56°04' W 003°05'0 0.0
2014-Nov-18 23:31N 56°04' W 003°05'0 0.0
2014-Nov-18 22:31N 56°04' W 003°05'0 0.0
2014-Nov-18 21:31N 56°04' W 003°05'0 0.0
2014-Nov-18 20:22N 56°04' W 003°05'0 0.0
2014-Nov-18 19:22N 56°04' W 003°05'0 0.0
2014-Nov-18 18:22N 56°04' W 003°05'0 0.0
2014-Nov-18 17:25N 56°04' W 003°05'0 0.0
2014-Nov-18 16:25N 56°04' W 003°05'0 0.0
2014-Nov-18 15:28N 56°04' W 003°05'2 2.7
2014-Nov-18 14:33N 56°04' W 003°09'1010.4
2014-Nov-18 13:33N 56°00' W 003°26'8 8.2
2014-Nov-18 12:33N 56°02' W 003°41'0 0.4
2014-Nov-18 11:33N 56°02' W 003°42'0 0.0
2014-Nov-18 10:33N 56°02' W 003°42'0 0.0
2014-Nov-18 09:33N 56°02' W 003°42'0 0.0
2014-Nov-18 08:33N 56°02' W 003°42'0 0.0
2014-Nov-18 07:33N 56°02' W 003°42'0 0.0
2014-Nov-18 06:33N 56°02' W 003°42'0 0.0
2014-Nov-18 05:33N 56°02' W 003°42'0 0.0
2014-Nov-18 04:33N 56°02' W 003°42'0 0.0
2014-Nov-18 03:33N 56°02' W 003°42'0 0.0
2014-Nov-18 02:33N 56°02' W 003°42'0 0.0
2014-Nov-18 01:33N 56°02' W 003°42'0 0.0
2014-Nov-18 00:33N 56°02' W 003°42'0 0.0
2014-Nov-17 23:33N 56°02' W 003°42'0 0.3
2014-Nov-17 22:30N 56°02' W 003°42'0 0.0
2014-Nov-17 21:33N 56°02' W 003°42'0 0.0
2014-Nov-17 20:33N 56°02' W 003°42'0 0.0
2014-Nov-17 19:33N 56°02' W 003°42'0 0.0
2014-Nov-17 18:33N 56°02' W 003°42'0 0.0
2014-Nov-17 17:33N 56°02' W 003°42'0 0.0
2014-Nov-17 16:33N 56°02' W 003°42'0 0.0
2014-Nov-17 15:33N 56°02' W 003°42'0 0.0
2014-Nov-17 14:33N 56°02' W 003°42'0 0.0
2014-Nov-17 13:33N 56°02' W 003°42'0 0.0
2014-Nov-17 12:33N 56°02' W 003°42'0 0.0
2014-Nov-17 11:33N 56°02' W 003°42'0 0.0
2014-Nov-17 10:33N 56°02' W 003°42'0 0.0
2014-Nov-17 09:33N 56°02' W 003°42'0 0.0
2014-Nov-17 08:33N 56°02' W 003°42'0 0.0
2014-Nov-17 07:33N 56°02' W 003°42'0 0.0
2014-Nov-17 06:33N 56°02' W 003°42'0 0.0
2014-Nov-17 05:33N 56°02' W 003°42'0 0.0
2014-Nov-17 04:33N 56°02' W 003°42'0 0.0
2014-Nov-17 03:33N 56°02' W 003°42'0 0.0
2014-Nov-17 02:33N 56°02' W 003°42'0 0.0
2014-Nov-17 01:33N 56°02' W 003°42'0 0.0
2014-Nov-17 00:33N 56°02' W 003°42'0 0.0
2014-Nov-16 23:33N 56°02' W 003°42'0 0.0
2014-Nov-16 22:33N 56°02' W 003°42'0 0.0
2014-Nov-16 21:30N 56°02' W 003°42'0 0.0
2014-Nov-16 20:33N 56°02' W 003°42'0 0.0
2014-Nov-16 19:33N 56°02' W 003°42'0 0.0
2014-Nov-16 18:33N 56°02' W 003°42'0 0.0
2014-Nov-16 17:33N 56°02' W 003°42'0 0.0
2014-Nov-16 16:33N 56°02' W 003°42'0 0.0
2014-Nov-16 15:33N 56°02' W 003°42'0 0.0
2014-Nov-16 14:33N 56°02' W 003°42'0 0.0
2014-Nov-16 13:33N 56°02' W 003°42'0 0.0
2014-Nov-16 12:33N 56°02' W 003°42'0 0.0
2014-Nov-16 11:33N 56°02' W 003°42'0 0.0
2014-Nov-16 10:33N 56°02' W 003°42'0 0.0
2014-Nov-16 09:33N 56°02' W 003°42'0 0.0
2014-Nov-16 08:33N 56°02' W 003°42'0 0.2
2014-Nov-16 07:33N 56°02' W 003°42'0 0.1
2014-Nov-16 06:31N 56°02' W 003°42'0 0.0
2014-Nov-16 05:31N 56°02' W 003°42'0 0.0
2014-Nov-16 04:31N 56°02' W 003°42'0 0.0
2014-Nov-16 03:31N 56°02' W 003°42'0 0.0
2014-Nov-16 02:31N 56°02' W 003°42'0 0.0
2014-Nov-16 01:31N 56°02' W 003°42'0 0.0
2014-Nov-16 00:31N 56°02' W 003°42'0 0.0
2014-Nov-15 23:31N 56°02' W 003°42'0 0.0
2014-Nov-15 22:31N 56°02' W 003°42'0 0.0
2014-Nov-15 21:31N 56°02' W 003°42'0 0.0
2014-Nov-15 20:31N 56°02' W 003°42'0 0.0
2014-Nov-15 19:31N 56°02' W 003°42'0 0.0
2014-Nov-15 18:31N 56°02' W 003°42'0 0.0
2014-Nov-15 17:31N 56°02' W 003°42'0 0.0
2014-Nov-15 16:31N 56°02' W 003°42'0 0.0
2014-Nov-15 15:31N 56°02' W 003°42'0 0.0
2014-Nov-15 14:31N 56°02' W 003°42'0 0.0
2014-Nov-15 13:31N 56°02' W 003°42'0 0.0
2014-Nov-15 12:31N 56°02' W 003°42'0 0.0
2014-Nov-15 11:31N 56°02' W 003°42'0 0.0
2014-Nov-15 10:31N 56°02' W 003°42'0 0.0
2014-Nov-15 09:31N 56°02' W 003°42'0 0.0
2014-Nov-15 08:31N 56°02' W 003°42'0 0.0
2014-Nov-15 07:31N 56°02' W 003°42'0 0.0
2014-Nov-15 06:31N 56°02' W 003°42'0 0.0
2014-Nov-15 05:31N 56°02' W 003°42'0 0.0
2014-Nov-15 04:31N 56°02' W 003°42'0 0.0
2014-Nov-15 03:31N 56°02' W 003°42'0 0.0
2014-Nov-15 02:31N 56°02' W 003°42'0 0.0
2014-Nov-15 01:31N 56°02' W 003°42'0 0.0
2014-Nov-15 00:31N 56°02' W 003°42'0 0.0
2014-Nov-14 23:31N 56°02' W 003°42'0 0.0
2014-Nov-14 22:31N 56°02' W 003°42'0 0.0
2014-Nov-14 21:31N 56°02' W 003°42'0 0.0
2014-Nov-14 20:31N 56°02' W 003°42'0 0.0
2014-Nov-14 19:31N 56°02' W 003°42'0 0.0
2014-Nov-14 18:31N 56°02' W 003°42'0 0.0
2014-Nov-14 17:31N 56°02' W 003°42'0 0.0
2014-Nov-14 16:31N 56°02' W 003°42'  
Track history (hours):
 
Tides and Currents Weather Stations Pressure Air Temp Water Temp Dewpoint Dewpoint Depression Visibility Wind Speed Wind Dir Waves Ship Positions

Marianne

Last reported at 2014-Nov-24 15:33 UTC. Time now 2014-Nov-25 01:40 UTC.
Position N 59°06' E 005°02'.

Length 97 m; draft 5.5 m.

Type: Ship (hazmat cat B). MMSI: 477560836.

Date/timePositionNaut miles runAvg speedWind from/ knotsBaromVisibWave heightAir tempDewpointWater temp
2014-Nov-24 15:33N 59°06' E 005°02'1110.9
2014-Nov-24 14:33N 59°06' E 005°23'9 9.1
2014-Nov-24 13:33N 59°14' E 005°32'0 0.0
2014-Nov-24 12:33N 59°14' E 005°32'0 0.0
2014-Nov-24 11:33N 59°14' E 005°32'0 0.1
2014-Nov-24 10:33N 59°14' E 005°32'0 0.0
2014-Nov-24 09:33N 59°14' E 005°32'0 0.0
2014-Nov-24 08:33N 59°14' E 005°32'0 0.0
2014-Nov-24 07:33N 59°14' E 005°32'0 0.0
2014-Nov-24 06:33N 59°14' E 005°32'0 0.0
2014-Nov-24 05:27N 59°14' E 005°32'0 0.0
2014-Nov-24 04:33N 59°14' E 005°32'0 0.0
2014-Nov-24 03:27N 59°14' E 005°32'0 0.0
2014-Nov-24 02:30N 59°14' E 005°32'0 0.0
2014-Nov-24 01:30N 59°14' E 005°32'0 0.0
2014-Nov-24 00:30N 59°14' E 005°32'0 0.0
2014-Nov-23 23:27N 59°14' E 005°32'0 0.1
2014-Nov-23 22:33N 59°14' E 005°32'0 0.2
2014-Nov-23 21:33N 59°14' E 005°32'0 0.1
2014-Nov-23 20:33N 59°14' E 005°32'0 0.0
2014-Nov-23 19:27N 59°14' E 005°32'3 3.3
2014-Nov-23 18:34N 59°11' E 005°32'8 8.0
2014-Nov-23 17:33N 59°05' E 005°22'1313.1
2014-Nov-23 16:33N 58°52' E 005°15'28014.5
2014-Nov-22 21:14N 54°12' E 004°58'1014.7
2014-Nov-22 20:33N 54°03' E 004°55'1514.7
2014-Nov-22 19:32N 53°48' E 004°53'1515.0
2014-Nov-22 18:32N 53°33' E 004°49'1515.3
2014-Nov-22 17:33N 53°19' E 004°38'1716.3
2014-Nov-22 16:31N 53°04' E 004°24'1816.2
2014-Nov-22 15:22N 52°48' E 004°11'1415.9
2014-Nov-22 14:30N 52°38' E 003°55'5914.6
2014-Nov-22 10:27N 51°43' E 003°17'1112.0
2014-Nov-22 09:32N 51°34' E 003°25'1110.9
2014-Nov-22 08:33N 51°26' E 003°37'4 3.9
2014-Nov-22 07:32N 51°28' E 003°43'0 0.0
2014-Nov-22 06:32N 51°28' E 003°43'0 0.0
2014-Nov-22 05:32N 51°28' E 003°43'0 0.0
2014-Nov-22 04:32N 51°28' E 003°43'0 0.0
2014-Nov-22 03:32N 51°28' E 003°43'0 0.0
2014-Nov-22 02:32N 51°28' E 003°43'0 0.0
2014-Nov-22 01:32N 51°28' E 003°43'0 0.0
2014-Nov-22 00:32N 51°28' E 003°43'0 0.0
2014-Nov-21 23:26N 51°28' E 003°43'0 0.0
2014-Nov-21 22:29N 51°28' E 003°43'0 0.0
2014-Nov-21 21:32N 51°28' E 003°43'0 0.0
2014-Nov-21 20:32N 51°28' E 003°43'0 0.0
2014-Nov-21 19:29N 51°28' E 003°43'0 0.0
2014-Nov-21 18:26N 51°28' E 003°43'0 0.0
2014-Nov-21 17:32N 51°28' E 003°43'4 3.7
2014-Nov-21 16:33N 51°26' E 003°38'9 9.0
2014-Nov-21 15:33N 51°31' E 003°26'1211.6
2014-Nov-21 14:32N 51°42' E 003°17'9 9.3
2014-Nov-21 13:33N 51°46' E 003°04'5212.1
2014-Nov-21 09:16N 52°30' E 002°19'2914.2
2014-Nov-21 07:15N 52°55' E 001°57'1015.2
2014-Nov-21 06:33N 53°01' E 001°43'1515.2
2014-Nov-21 05:33N 53°09' E 001°21'4714.8
2014-Nov-21 02:22N 53°49' E 000°38'1214.7
2014-Nov-21 01:33N 53°58' E 000°26'1414.4
2014-Nov-21 00:33N 54°09' E 000°11'1414.0
2014-Nov-20 23:33N 54°21' W 000°01'1413.7
2014-Nov-20 22:33N 54°33' W 000°12'1313.4
2014-Nov-20 21:33N 54°45' W 000°23'1313.2
2014-Nov-20 20:33N 54°57' W 000°34'8013.1
2014-Nov-20 14:28N 55°58' W 002°04'1314.0
2014-Nov-20 13:33N 56°05' W 002°24'1312.7
2014-Nov-20 12:33N 56°06' W 002°46'1010.3
2014-Nov-20 11:33N 56°04' W 003°05'0 0.0
2014-Nov-20 10:25N 56°04' W 003°05'0 0.0
2014-Nov-20 09:28N 56°04' W 003°05'0 0.0
2014-Nov-20 08:28N 56°04' W 003°05'0 0.0
2014-Nov-20 07:28N 56°04' W 003°05'0 0.0
2014-Nov-20 06:31N 56°04' W 003°05'0 0.0
2014-Nov-20 05:16N 56°04' W 003°05'0 0.1
2014-Nov-20 04:31N 56°04' W 003°05'0 0.0
2014-Nov-20 03:31N 56°04' W 003°05'0 0.1
2014-Nov-20 02:31N 56°04' W 003°05'0 0.1
2014-Nov-20 01:31N 56°04' W 003°05'0 0.0
2014-Nov-20 00:31N 56°04' W 003°05'0 0.0
2014-Nov-19 23:22N 56°04' W 003°05'0 0.0
2014-Nov-19 22:25N 56°04' W 003°05'0 0.0
2014-Nov-19 21:25N 56°04' W 003°05'0 0.0
2014-Nov-19 20:25N 56°04' W 003°05'0 0.0
2014-Nov-19 19:28N 56°04' W 003°05'0 0.0
2014-Nov-19 18:28N 56°04' W 003°05'0 0.0
2014-Nov-19 17:28N 56°04' W 003°05'0 0.0
2014-Nov-19 16:31N 56°04' W 003°05'0 0.0
2014-Nov-19 15:31N 56°04' W 003°05'0 0.0
2014-Nov-19 14:31N 56°04' W 003°05'0 0.0
2014-Nov-19 13:31N 56°04' W 003°05'0 0.0
2014-Nov-19 12:19N 56°04' W 003°05'0 0.0
2014-Nov-19 11:31N 56°04' W 003°05'0 0.0
2014-Nov-19 10:22N 56°04' W 003°05'0 0.0
2014-Nov-19 09:22N 56°04' W 003°05'0 0.0
2014-Nov-19 08:25N 56°04' W 003°05'0 0.0
2014-Nov-19 07:25N 56°04' W 003°05'0 0.0
2014-Nov-19 06:25N 56°04' W 003°05'0 0.0
2014-Nov-19 05:28N 56°04' W 003°05'0 0.0
2014-Nov-19 04:25N 56°04' W 003°05'0 0.0
2014-Nov-19 03:28N 56°04' W 003°05'0 0.0
2014-Nov-19 02:31N 56°04' W 003°05'0 0.0
2014-Nov-19 01:31N 56°04' W 003°05'0 0.0
2014-Nov-19 00:31N 56°04' W 003°05'0 0.0
2014-Nov-18 23:31N 56°04' W 003°05'0 0.0
2014-Nov-18 22:31N 56°04' W 003°05'0 0.0
2014-Nov-18 21:31N 56°04' W 003°05'0 0.0
2014-Nov-18 20:22N 56°04' W 003°05'0 0.0
2014-Nov-18 19:22N 56°04' W 003°05'0 0.0
2014-Nov-18 18:22N 56°04' W 003°05'0 0.0
2014-Nov-18 17:25N 56°04' W 003°05'0 0.0
2014-Nov-18 16:25N 56°04' W 003°05'0 0.0
2014-Nov-18 15:28N 56°04' W 003°05'2 2.7
2014-Nov-18 14:33N 56°04' W 003°09'1010.4
2014-Nov-18 13:33N 56°00' W 003°26'8 8.2
2014-Nov-18 12:33N 56°02' W 003°41'0 0.4
2014-Nov-18 11:33N 56°02' W 003°42'0 0.0
2014-Nov-18 10:33N 56°02' W 003°42'0 0.0
2014-Nov-18 09:33N 56°02' W 003°42'0 0.0
2014-Nov-18 08:33N 56°02' W 003°42'0 0.0
2014-Nov-18 07:33N 56°02' W 003°42'0 0.0
2014-Nov-18 06:33N 56°02' W 003°42'0 0.0
2014-Nov-18 05:33N 56°02' W 003°42'0 0.0
2014-Nov-18 04:33N 56°02' W 003°42'0 0.0
2014-Nov-18 03:33N 56°02' W 003°42'0 0.0
2014-Nov-18 02:33N 56°02' W 003°42'0 0.0
2014-Nov-18 01:33N 56°02' W 003°42'0 0.0
2014-Nov-18 00:33N 56°02' W 003°42'0 0.0
2014-Nov-17 23:33N 56°02' W 003°42'0 0.3
2014-Nov-17 22:30N 56°02' W 003°42'0 0.0
2014-Nov-17 21:33N 56°02' W 003°42'0 0.0
2014-Nov-17 20:33N 56°02' W 003°42'0 0.0
2014-Nov-17 19:33N 56°02' W 003°42'0 0.0
2014-Nov-17 18:33N 56°02' W 003°42'0 0.0
2014-Nov-17 17:33N 56°02' W 003°42'0 0.0
2014-Nov-17 16:33N 56°02' W 003°42'0 0.0
2014-Nov-17 15:33N 56°02' W 003°42'0 0.0
2014-Nov-17 14:33N 56°02' W 003°42'0 0.0
2014-Nov-17 13:33N 56°02' W 003°42'0 0.0
2014-Nov-17 12:33N 56°02' W 003°42'0 0.0
2014-Nov-17 11:33N 56°02' W 003°42'0 0.0
2014-Nov-17 10:33N 56°02' W 003°42'0 0.0
2014-Nov-17 09:33N 56°02' W 003°42'0 0.0
2014-Nov-17 08:33N 56°02' W 003°42'0 0.0
2014-Nov-17 07:33N 56°02' W 003°42'0 0.0
2014-Nov-17 06:33N 56°02' W 003°42'0 0.0
2014-Nov-17 05:33N 56°02' W 003°42'0 0.0
2014-Nov-17 04:33N 56°02' W 003°42'0 0.0
2014-Nov-17 03:33N 56°02' W 003°42'0 0.0
2014-Nov-17 02:33N 56°02' W 003°42'0 0.0
2014-Nov-17 01:33N 56°02' W 003°42'0 0.0
2014-Nov-17 00:33N 56°02' W 003°42'0 0.0
2014-Nov-16 23:33N 56°02' W 003°42'0 0.0
2014-Nov-16 22:33N 56°02' W 003°42'0 0.0
2014-Nov-16 21:30N 56°02' W 003°42'0 0.0
2014-Nov-16 20:33N 56°02' W 003°42'0 0.0
2014-Nov-16 19:33N 56°02' W 003°42'0 0.0
2014-Nov-16 18:33N 56°02' W 003°42'0 0.0
2014-Nov-16 17:33N 56°02' W 003°42'0 0.0
2014-Nov-16 16:33N 56°02' W 003°42'0 0.0
2014-Nov-16 15:33N 56°02' W 003°42'0 0.0
2014-Nov-16 14:33N 56°02' W 003°42'0 0.0
2014-Nov-16 13:33N 56°02' W 003°42'0 0.0
2014-Nov-16 12:33N 56°02' W 003°42'0 0.0
2014-Nov-16 11:33N 56°02' W 003°42'0 0.0
2014-Nov-16 10:33N 56°02' W 003°42'0 0.0
2014-Nov-16 09:33N 56°02' W 003°42'0 0.0
2014-Nov-16 08:33N 56°02' W 003°42'0 0.2
2014-Nov-16 07:33N 56°02' W 003°42'0 0.1
2014-Nov-16 06:31N 56°02' W 003°42'0 0.0
2014-Nov-16 05:31N 56°02' W 003°42'0 0.0
2014-Nov-16 04:31N 56°02' W 003°42'0 0.0
2014-Nov-16 03:31N 56°02' W 003°42'0 0.0
2014-Nov-16 02:31N 56°02' W 003°42'0 0.0
2014-Nov-16 01:31N 56°02' W 003°42'0 0.0
2014-Nov-16 00:31N 56°02' W 003°42'0 0.0
2014-Nov-15 23:31N 56°02' W 003°42'0 0.0
2014-Nov-15 22:31N 56°02' W 003°42'0 0.0
2014-Nov-15 21:31N 56°02' W 003°42'0 0.0
2014-Nov-15 20:31N 56°02' W 003°42'0 0.0
2014-Nov-15 19:31N 56°02' W 003°42'0 0.0
2014-Nov-15 18:31N 56°02' W 003°42'0 0.0
2014-Nov-15 17:31N 56°02' W 003°42'0 0.0
2014-Nov-15 16:31N 56°02' W 003°42'0 0.0
2014-Nov-15 15:31N 56°02' W 003°42'0 0.0
2014-Nov-15 14:31N 56°02' W 003°42'0 0.0
2014-Nov-15 13:31N 56°02' W 003°42'0 0.0
2014-Nov-15 12:31N 56°02' W 003°42'0 0.0
2014-Nov-15 11:31N 56°02' W 003°42'0 0.0
2014-Nov-15 10:31N 56°02' W 003°42'0 0.0
2014-Nov-15 09:31N 56°02' W 003°42'0 0.0
2014-Nov-15 08:31N 56°02' W 003°42'0 0.0
2014-Nov-15 07:31N 56°02' W 003°42'0 0.0
2014-Nov-15 06:31N 56°02' W 003°42'0 0.0
2014-Nov-15 05:31N 56°02' W 003°42'0 0.0
2014-Nov-15 04:31N 56°02' W 003°42'0 0.0
2014-Nov-15 03:31N 56°02' W 003°42'0 0.0
2014-Nov-15 02:31N 56°02' W 003°42'0 0.0
2014-Nov-15 01:31N 56°02' W 003°42'0 0.0
2014-Nov-15 00:31N 56°02' W 003°42'0 0.0
2014-Nov-14 23:31N 56°02' W 003°42'0 0.0
2014-Nov-14 22:31N 56°02' W 003°42'0 0.0
2014-Nov-14 21:31N 56°02' W 003°42'0 0.0
2014-Nov-14 20:31N 56°02' W 003°42'0 0.0
2014-Nov-14 19:31N 56°02' W 003°42'0 0.0
2014-Nov-14 18:31N 56°02' W 003°42'0 0.0
2014-Nov-14 17:31N 56°02' W 003°42'0 0.0
2014-Nov-14 16:31N 56°02' W 003°42'  

Dump ship's entire track history